createdAt,value
2023-01-23T00:12:20.000Z,0.00
2023-01-23T00:26:58.000Z,0.00
2023-01-23T00:41:38.000Z,0.00
2023-01-23T00:56:05.000Z,0.00
2023-01-23T01:10:44.000Z,0.00
2023-01-23T01:25:21.000Z,0.00
2023-01-23T01:39:59.000Z,0.00
2023-01-23T01:54:36.000Z,0.00
2023-01-23T02:09:14.000Z,0.00
2023-01-23T02:23:51.000Z,0.00
2023-01-23T02:38:29.000Z,0.00
2023-01-23T02:53:02.000Z,0.00
2023-01-23T03:07:40.000Z,0.00
2023-01-23T03:22:16.000Z,0.00
2023-01-23T03:36:55.000Z,0.00
2023-01-23T03:51:33.000Z,0.00
2023-01-23T04:06:09.000Z,0.00
2023-01-23T04:20:46.000Z,0.00
2023-01-23T04:35:24.000Z,0.00
2023-01-23T04:49:59.000Z,0.00
2023-01-23T05:04:37.000Z,0.00
2023-01-23T05:19:14.000Z,0.00
2023-01-23T05:33:51.000Z,0.00
2023-01-23T05:48:29.000Z,0.00
2023-01-23T06:03:07.000Z,0.00
2023-01-23T06:17:45.000Z,0.00
2023-01-23T06:32:21.000Z,0.00
2023-01-23T06:46:49.000Z,0.00
2023-01-23T07:01:25.000Z,4.17
2023-01-23T07:16:02.000Z,21.67
2023-01-23T07:30:40.000Z,35.00
2023-01-23T07:45:12.000Z,73.33
2023-01-23T07:59:48.000Z,124.17
2023-01-23T08:14:26.000Z,187.50
2023-01-23T08:29:04.000Z,269.17
2023-01-23T08:43:40.000Z,399.17
2023-01-23T08:58:15.000Z,411.67
2023-01-23T09:12:52.000Z,506.67
2023-01-23T09:27:29.000Z,515.83
2023-01-23T09:42:08.000Z,529.17
2023-01-23T09:56:46.000Z,650.00
2023-01-23T10:11:24.000Z,586.67
2023-01-23T10:26:02.000Z,670.83
2023-01-23T10:40:41.000Z,601.67
2023-01-23T10:55:13.000Z,575.00
2023-01-23T11:09:50.000Z,559.17
2023-01-23T11:24:27.000Z,737.50
2023-01-23T11:39:03.000Z,819.17
2023-01-23T11:53:41.000Z,1105.00
2023-01-23T12:08:19.000Z,834.17
2023-01-23T12:22:56.000Z,699.17
2023-01-23T12:37:33.000Z,765.83
2023-01-23T12:52:13.000Z,699.17
2023-01-23T13:06:44.000Z,765.83
2023-01-23T13:21:22.000Z,797.50
2023-01-23T13:35:59.000Z,653.33
2023-01-23T13:50:36.000Z,734.17
2023-01-23T14:05:14.000Z,938.33
2023-01-23T14:19:50.000Z,990.00
2023-01-23T14:34:30.000Z,904.17
2023-01-23T14:49:05.000Z,307.50
2023-01-23T15:03:41.000Z,202.50
2023-01-23T15:18:15.000Z,141.67
2023-01-23T15:32:53.000Z,83.33
2023-01-23T15:47:29.000Z,48.33
2023-01-23T16:02:06.000Z,17.50
2023-01-23T16:16:43.000Z,5.00
2023-01-23T16:31:19.000Z,0.83
2023-01-23T16:45:57.000Z,0.00
2023-01-23T17:00:35.000Z,0.00
2023-01-23T17:15:09.000Z,0.00
2023-01-23T17:29:47.000Z,0.00
2023-01-23T17:44:23.000Z,0.00
2023-01-23T17:58:59.000Z,0.00
2023-01-23T18:13:37.000Z,0.00
2023-01-23T18:28:13.000Z,0.00
2023-01-23T18:42:51.000Z,0.00
2023-01-23T18:57:28.000Z,0.00
2023-01-23T19:12:05.000Z,0.00
2023-01-23T19:26:40.000Z,0.00
2023-01-23T19:41:12.000Z,0.00
2023-01-23T19:55:49.000Z,0.00
2023-01-23T20:10:23.000Z,0.00
2023-01-23T20:24:54.000Z,0.00
2023-01-23T20:39:28.000Z,0.00
2023-01-23T20:54:06.000Z,0.00
2023-01-23T21:08:44.000Z,0.00
2023-01-23T21:23:21.000Z,0.00
2023-01-23T21:37:59.000Z,0.00
2023-01-23T21:52:37.000Z,0.00
2023-01-23T22:07:12.000Z,0.00
2023-01-23T22:21:49.000Z,0.00
2023-01-23T22:36:24.000Z,0.00
2023-01-23T22:50:55.000Z,0.00
2023-01-23T23:05:32.000Z,0.00
2023-01-23T23:20:14.000Z,0.00
2023-01-23T23:34:48.000Z,0.00
2023-01-23T23:49:23.000Z,0.00
